sensor_id;sensor_type;location;lat;lon;timestamp;temperature;humidity
26035;DHT22;13809;48.632;11.576;2022-11-20T00:01:57;7.80;48.40
26035;DHT22;13809;48.632;11.576;2022-11-20T00:07:02;7.80;48.40
26035;DHT22;13809;48.632;11.576;2022-11-20T00:12:05;7.80;48.30
26035;DHT22;13809;48.632;11.576;2022-11-20T00:17:09;7.90;48.30
26035;DHT22;13809;48.632;11.576;2022-11-20T00:22:14;7.90;48.10
26035;DHT22;13809;48.632;11.576;2022-11-20T00:27:17;7.90;48.80
26035;DHT22;13809;48.632;11.576;2022-11-20T00:32:20;7.90;48.00
26035;DHT22;13809;48.632;11.576;2022-11-20T00:37:25;7.80;47.90
26035;DHT22;13809;48.632;11.576;2022-11-20T00:42:28;7.80;47.70
26035;DHT22;13809;48.632;11.576;2022-11-20T00:47:31;7.80;47.60
26035;DHT22;13809;48.632;11.576;2022-11-20T00:52:35;7.70;47.90
26035;DHT22;13809;48.632;11.576;2022-11-20T00:57:38;7.70;48.10
26035;DHT22;13809;48.632;11.576;2022-11-20T01:02:41;7.70;48.20
26035;DHT22;13809;48.632;11.576;2022-11-20T01:07:46;7.70;48.20
26035;DHT22;13809;48.632;11.576;2022-11-20T01:12:49;7.80;48.40
26035;DHT22;13809;48.632;11.576;2022-11-20T01:18:12;7.80;48.30
26035;DHT22;13809;48.632;11.576;2022-11-20T01:23:17;7.90;48.30
26035;DHT22;13809;48.632;11.576;2022-11-20T01:28:21;7.90;48.80
26035;DHT22;13809;48.632;11.576;2022-11-20T01:33:25;7.90;48.30
26035;DHT22;13809;48.632;11.576;2022-11-20T01:38:29;7.90;48.10
26035;DHT22;13809;48.632;11.576;2022-11-20T01:43:32;7.90;48.20
26035;DHT22;13809;48.632;11.576;2022-11-20T01:48:42;8.00;48.30
26035;DHT22;13809;48.632;11.576;2022-11-20T01:53:48;8.00;48.30
26035;DHT22;13809;48.632;11.576;2022-11-20T01:58:55;8.00;48.20
26035;DHT22;13809;48.632;11.576;2022-11-20T02:04:00;8.00;48.20
26035;DHT22;13809;48.632;11.576;2022-11-20T02:09:04;8.00;48.20
26035;DHT22;13809;48.632;11.576;2022-11-20T02:14:08;8.00;48.10
26035;DHT22;13809;48.632;11.576;2022-11-20T02:19:19;8.00;48.00
26035;DHT22;13809;48.632;11.576;2022-11-20T02:24:26;8.00;48.20
26035;DHT22;13809;48.632;11.576;2022-11-20T02:29:33;8.00;48.50
26035;DHT22;13809;48.632;11.576;2022-11-20T02:34:38;8.00;48.50
26035;DHT22;13809;48.632;11.576;2022-11-20T02:39:44;8.00;48.60
26035;DHT22;13809;48.632;11.576;2022-11-20T02:44:47;8.10;48.60
26035;DHT22;13809;48.632;11.576;2022-11-20T02:49:50;8.10;48.50
26035;DHT22;13809;48.632;11.576;2022-11-20T02:54:54;8.10;48.60
26035;DHT22;13809;48.632;11.576;2022-11-20T02:59:58;8.10;48.50
26035;DHT22;13809;48.632;11.576;2022-11-20T03:05:01;8.10;48.30
26035;DHT22;13809;48.632;11.576;2022-11-20T03:10:06;8.10;48.40
26035;DHT22;13809;48.632;11.576;2022-11-20T03:15:10;8.10;48.70
26035;DHT22;13809;48.632;11.576;2022-11-20T03:20:13;8.10;48.60
26035;DHT22;13809;48.632;11.576;2022-11-20T03:25:17;8.00;48.60
26035;DHT22;13809;48.632;11.576;2022-11-20T03:30:21;8.00;48.80
26035;DHT22;13809;48.632;11.576;2022-11-20T03:35:31;8.00;49.00
26035;DHT22;13809;48.632;11.576;2022-11-20T03:40:35;8.00;49.10
26035;DHT22;13809;48.632;11.576;2022-11-20T03:45:38;8.00;49.50
26035;DHT22;13809;48.632;11.576;2022-11-20T03:50:41;7.90;50.00
26035;DHT22;13809;48.632;11.576;2022-11-20T03:55:50;7.90;50.90
26035;DHT22;13809;48.632;11.576;2022-11-20T04:00:54;8.00;51.10
26035;DHT22;13809;48.632;11.576;2022-11-20T04:06:01;8.10;51.10
26035;DHT22;13809;48.632;11.576;2022-11-20T04:11:14;8.20;51.20
26035;DHT22;13809;48.632;11.576;2022-11-20T04:16:18;8.30;51.30
26035;DHT22;13809;48.632;11.576;2022-11-20T04:21:22;8.40;50.80
26035;DHT22;13809;48.632;11.576;2022-11-20T04:26:28;8.50;50.80
26035;DHT22;13809;48.632;11.576;2022-11-20T04:31:33;8.50;50.90
26035;DHT22;13809;48.632;11.576;2022-11-20T04:36:36;8.50;50.80
26035;DHT22;13809;48.632;11.576;2022-11-20T04:41:40;8.50;50.40
26035;DHT22;13809;48.632;11.576;2022-11-20T04:46:44;8.60;50.60
26035;DHT22;13809;48.632;11.576;2022-11-20T04:51:47;8.60;50.40
26035;DHT22;13809;48.632;11.576;2022-11-20T04:56:51;8.60;50.40
26035;DHT22;13809;48.632;11.576;2022-11-20T05:01:54;8.60;50.30
26035;DHT22;13809;48.632;11.576;2022-11-20T05:06:57;8.60;50.20
26035;DHT22;13809;48.632;11.576;2022-11-20T05:12:02;8.60;50.20
26035;DHT22;13809;48.632;11.576;2022-11-20T05:17:05;8.60;50.10
26035;DHT22;13809;48.632;11.576;2022-11-20T05:22:09;8.60;50.10
26035;DHT22;13809;48.632;11.576;2022-11-20T05:27:13;8.60;50.00
26035;DHT22;13809;48.632;11.576;2022-11-20T05:32:16;8.60;50.10
26035;DHT22;13809;48.632;11.576;2022-11-20T05:37:19;8.70;50.10
26035;DHT22;13809;48.632;11.576;2022-11-20T05:42:24;8.60;50.00
26035;DHT22;13809;48.632;11.576;2022-11-20T05:47:33;8.70;50.00
26035;DHT22;13809;48.632;11.576;2022-11-20T05:52:36;8.70;50.00
26035;DHT22;13809;48.632;11.576;2022-11-20T05:57:41;8.70;50.00
26035;DHT22;13809;48.632;11.576;2022-11-20T06:02:44;8.70;49.90
26035;DHT22;13809;48.632;11.576;2022-11-20T06:07:47;8.70;50.00
26035;DHT22;13809;48.632;11.576;2022-11-20T06:12:52;8.70;50.00
26035;DHT22;13809;48.632;11.576;2022-11-20T06:17:56;8.70;49.90
26035;DHT22;13809;48.632;11.576;2022-11-20T06:23:00;8.70;50.00
26035;DHT22;13809;48.632;11.576;2022-11-20T06:28:05;8.70;50.00
26035;DHT22;13809;48.632;11.576;2022-11-20T06:33:08;8.70;49.70
26035;DHT22;13809;48.632;11.576;2022-11-20T06:38:11;8.80;49.80
26035;DHT22;13809;48.632;11.576;2022-11-20T06:43:15;8.80;49.70
26035;DHT22;13809;48.632;11.576;2022-11-20T06:48:18;8.80;49.50
26035;DHT22;13809;48.632;11.576;2022-11-20T06:53:22;8.90;49.50
26035;DHT22;13809;48.632;11.576;2022-11-20T06:58:28;8.90;49.40
26035;DHT22;13809;48.632;11.576;2022-11-20T07:03:31;8.90;49.30
26035;DHT22;13809;48.632;11.576;2022-11-20T07:08:35;8.80;49.40
26035;DHT22;13809;48.632;11.576;2022-11-20T07:13:39;8.90;49.40
26035;DHT22;13809;48.632;11.576;2022-11-20T07:18:42;8.90;49.40
26035;DHT22;13809;48.632;11.576;2022-11-20T07:23:51;8.90;49.30
26035;DHT22;13809;48.632;11.576;2022-11-20T07:28:56;8.90;49.20
26035;DHT22;13809;48.632;11.576;2022-11-20T07:33:59;8.90;49.00
26035;DHT22;13809;48.632;11.576;2022-11-20T07:39:02;9.00;49.10
26035;DHT22;13809;48.632;11.576;2022-11-20T07:44:07;9.00;48.90
26035;DHT22;13809;48.632;11.576;2022-11-20T07:49:10;9.00;48.90
26035;DHT22;13809;48.632;11.576;2022-11-20T07:54:13;9.00;48.80
26035;DHT22;13809;48.632;11.576;2022-11-20T07:59:17;9.10;48.80
26035;DHT22;13809;48.632;11.576;2022-11-20T08:04:21;9.10;48.60
26035;DHT22;13809;48.632;11.576;2022-11-20T08:09:25;9.10;48.80
26035;DHT22;13809;48.632;11.576;2022-11-20T08:14:29;9.20;49.00
26035;DHT22;13809;48.632;11.576;2022-11-20T08:19:32;9.20;48.90
26035;DHT22;13809;48.632;11.576;2022-11-20T08:24:35;9.30;48.90
26035;DHT22;13809;48.632;11.576;2022-11-20T08:29:40;9.40;48.70
26035;DHT22;13809;48.632;11.576;2022-11-20T08:34:43;9.40;48.50
26035;DHT22;13809;48.632;11.576;2022-11-20T08:39:46;9.40;48.70
26035;DHT22;13809;48.632;11.576;2022-11-20T08:44:50;9.40;48.60
26035;DHT22;13809;48.632;11.576;2022-11-20T08:49:53;9.40;48.40
26035;DHT22;13809;48.632;11.576;2022-11-20T08:54:57;9.50;48.60
26035;DHT22;13809;48.632;11.576;2022-11-20T09:00:02;9.50;48.50
26035;DHT22;13809;48.632;11.576;2022-11-20T09:05:08;9.60;48.20
26035;DHT22;13809;48.632;11.576;2022-11-20T09:10:11;9.60;48.40
26035;DHT22;13809;48.632;11.576;2022-11-20T09:15:26;9.70;48.60
26035;DHT22;13809;48.632;11.576;2022-11-20T09:20:30;9.70;48.30
26035;DHT22;13809;48.632;11.576;2022-11-20T09:25:34;9.80;48.10
26035;DHT22;13809;48.632;11.576;2022-11-20T09:30:38;9.80;48.00
26035;DHT22;13809;48.632;11.576;2022-11-20T09:35:42;9.80;47.70
26035;DHT22;13809;48.632;11.576;2022-11-20T09:40:51;9.90;47.90
26035;DHT22;13809;48.632;11.576;2022-11-20T09:46:04;9.90;47.60
26035;DHT22;13809;48.632;11.576;2022-11-20T09:51:20;9.90;47.20
26035;DHT22;13809;48.632;11.576;2022-11-20T09:56:26;10.00;46.40
26035;DHT22;13809;48.632;11.576;2022-11-20T10:01:35;10.00;46.90
26035;DHT22;13809;48.632;11.576;2022-11-20T10:06:44;10.00;46.50
26035;DHT22;13809;48.632;11.576;2022-11-20T10:12:15;10.00;46.30
26035;DHT22;13809;48.632;11.576;2022-11-20T10:17:33;10.10;46.20
26035;DHT22;13809;48.632;11.576;2022-11-20T10:22:52;10.10;46.40
26035;DHT22;13809;48.632;11.576;2022-11-20T10:28:21;10.10;46.00
26035;DHT22;13809;48.632;11.576;2022-11-20T10:33:29;10.20;46.20
26035;DHT22;13809;48.632;11.576;2022-11-20T10:38:58;10.20;47.50
26035;DHT22;13809;48.632;11.576;2022-11-20T10:44:05;10.30;46.50
26035;DHT22;13809;48.632;11.576;2022-11-20T10:49:15;10.30;46.30
26035;DHT22;13809;48.632;11.576;2022-11-20T10:54:22;10.40;46.30
26035;DHT22;13809;48.632;11.576;2022-11-20T10:59:35;10.40;46.20
26035;DHT22;13809;48.632;11.576;2022-11-20T11:04:45;10.50;45.90
26035;DHT22;13809;48.632;11.576;2022-11-20T11:09:50;10.50;46.30
26035;DHT22;13809;48.632;11.576;2022-11-20T11:14:55;10.50;46.30
26035;DHT22;13809;48.632;11.576;2022-11-20T11:20:03;10.40;46.30
26035;DHT22;13809;48.632;11.576;2022-11-20T11:25:23;10.40;46.50
26035;DHT22;13809;48.632;11.576;2022-11-20T11:30:28;10.40;46.20
26035;DHT22;13809;48.632;11.576;2022-11-20T11:35:44;10.40;46.60
26035;DHT22;13809;48.632;11.576;2022-11-20T11:40:53;10.50;46.30
26035;DHT22;13809;48.632;11.576;2022-11-20T11:45:58;10.50;46.30
26035;DHT22;13809;48.632;11.576;2022-11-20T11:51:08;10.50;46.30
26035;DHT22;13809;48.632;11.576;2022-11-20T11:56:11;10.60;46.10
26035;DHT22;13809;48.632;11.576;2022-11-20T12:01:28;10.60;46.40
26035;DHT22;13809;48.632;11.576;2022-11-20T12:06:36;10.60;45.90
26035;DHT22;13809;48.632;11.576;2022-11-20T12:11:46;10.60;45.80
26035;DHT22;13809;48.632;11.576;2022-11-20T12:16:52;10.60;45.50
26035;DHT22;13809;48.632;11.576;2022-11-20T12:22:02;10.60;46.30
26035;DHT22;13809;48.632;11.576;2022-11-20T12:27:36;10.60;45.70
26035;DHT22;13809;48.632;11.576;2022-11-20T12:33:11;10.60;45.40
26035;DHT22;13809;48.632;11.576;2022-11-20T12:44:03;10.60;45.40
26035;DHT22;13809;48.632;11.576;2022-11-20T12:49:34;10.60;45.60
26035;DHT22;13809;48.632;11.576;2022-11-20T12:54:54;10.60;45.80
26035;DHT22;13809;48.632;11.576;2022-11-20T13:00:14;10.60;45.70
26035;DHT22;13809;48.632;11.576;2022-11-20T13:05:20;10.70;45.90
26035;DHT22;13809;48.632;11.576;2022-11-20T13:10:30;10.60;46.10
26035;DHT22;13809;48.632;11.576;2022-11-20T13:15:44;10.50;46.30
26035;DHT22;13809;48.632;11.576;2022-11-20T13:20:51;10.50;46.10
26035;DHT22;13809;48.632;11.576;2022-11-20T13:26:05;10.60;46.40
26035;DHT22;13809;48.632;11.576;2022-11-20T13:31:34;10.60;46.40
26035;DHT22;13809;48.632;11.576;2022-11-20T13:36:49;10.50;46.30
26035;DHT22;13809;48.632;11.576;2022-11-20T13:41:55;10.50;46.30
26035;DHT22;13809;48.632;11.576;2022-11-20T13:47:00;10.60;46.40
26035;DHT22;13809;48.632;11.576;2022-11-20T13:52:26;10.60;46.60
26035;DHT22;13809;48.632;11.576;2022-11-20T13:57:43;10.60;46.40
26035;DHT22;13809;48.632;11.576;2022-11-20T14:03:01;10.60;46.50
26035;DHT22;13809;48.632;11.576;2022-11-20T14:08:09;10.60;46.40
26035;DHT22;13809;48.632;11.576;2022-11-20T14:13:18;10.70;46.60
26035;DHT22;13809;48.632;11.576;2022-11-20T14:18:22;10.70;46.50
26035;DHT22;13809;48.632;11.576;2022-11-20T14:23:28;10.70;46.50
26035;DHT22;13809;48.632;11.576;2022-11-20T14:28:32;10.70;46.50
26035;DHT22;13809;48.632;11.576;2022-11-20T14:33:37;10.70;46.50
26035;DHT22;13809;48.632;11.576;2022-11-20T14:38:40;10.70;46.30
26035;DHT22;13809;48.632;11.576;2022-11-20T14:43:46;10.70;46.50
26035;DHT22;13809;48.632;11.576;2022-11-20T14:48:53;10.70;46.00
26035;DHT22;13809;48.632;11.576;2022-11-20T14:54:10;10.70;45.70
26035;DHT22;13809;48.632;11.576;2022-11-20T14:59:22;10.70;45.40
26035;DHT22;13809;48.632;11.576;2022-11-20T15:04:28;10.70;45.50
26035;DHT22;13809;48.632;11.576;2022-11-20T15:09:31;10.70;46.10
26035;DHT22;13809;48.632;11.576;2022-11-20T15:14:36;10.70;46.10
26035;DHT22;13809;48.632;11.576;2022-11-20T15:19:41;10.70;46.00
26035;DHT22;13809;48.632;11.576;2022-11-20T15:24:44;10.70;45.90
26035;DHT22;13809;48.632;11.576;2022-11-20T15:29:47;10.80;46.00
26035;DHT22;13809;48.632;11.576;2022-11-20T15:34:52;10.70;45.90
26035;DHT22;13809;48.632;11.576;2022-11-20T15:39:55;10.70;45.70
26035;DHT22;13809;48.632;11.576;2022-11-20T15:44:58;10.70;46.00
26035;DHT22;13809;48.632;11.576;2022-11-20T15:50:03;10.60;46.20
26035;DHT22;13809;48.632;11.576;2022-11-20T15:55:09;10.60;46.00
26035;DHT22;13809;48.632;11.576;2022-11-20T16:00:13;10.60;46.10
26035;DHT22;13809;48.632;11.576;2022-11-20T16:05:28;10.60;46.10
26035;DHT22;13809;48.632;11.576;2022-11-20T16:10:31;10.60;45.90
26035;DHT22;13809;48.632;11.576;2022-11-20T16:15:34;10.60;46.20
26035;DHT22;13809;48.632;11.576;2022-11-20T16:20:52;10.60;46.30
26035;DHT22;13809;48.632;11.576;2022-11-20T16:25:55;10.70;46.00
26035;DHT22;13809;48.632;11.576;2022-11-20T16:31:08;10.70;46.60
26035;DHT22;13809;48.632;11.576;2022-11-20T16:36:14;10.70;45.40
26035;DHT22;13809;48.632;11.576;2022-11-20T16:41:17;10.60;45.50
26035;DHT22;13809;48.632;11.576;2022-11-20T16:46:22;10.60;45.60
26035;DHT22;13809;48.632;11.576;2022-11-20T16:51:28;10.60;45.70
26035;DHT22;13809;48.632;11.576;2022-11-20T16:56:32;10.50;45.30
26035;DHT22;13809;48.632;11.576;2022-11-20T17:01:35;10.50;45.60
26035;DHT22;13809;48.632;11.576;2022-11-20T17:06:43;10.50;45.60
26035;DHT22;13809;48.632;11.576;2022-11-20T17:11:47;10.40;45.40
26035;DHT22;13809;48.632;11.576;2022-11-20T17:16:50;10.30;45.60
26035;DHT22;13809;48.632;11.576;2022-11-20T17:21:55;10.30;45.80
26035;DHT22;13809;48.632;11.576;2022-11-20T17:26:58;10.20;45.60
26035;DHT22;13809;48.632;11.576;2022-11-20T17:32:01;10.20;45.80
26035;DHT22;13809;48.632;11.576;2022-11-20T17:37:06;10.10;45.70
26035;DHT22;13809;48.632;11.576;2022-11-20T17:42:10;10.10;45.50
26035;DHT22;13809;48.632;11.576;2022-11-20T17:47:30;10.00;45.70
26035;DHT22;13809;48.632;11.576;2022-11-20T17:52:34;10.00;45.70
26035;DHT22;13809;48.632;11.576;2022-11-20T17:57:37;10.00;45.50
26035;DHT22;13809;48.632;11.576;2022-11-20T18:02:57;10.00;45.60
26035;DHT22;13809;48.632;11.576;2022-11-20T18:08:02;9.90;46.50
26035;DHT22;13809;48.632;11.576;2022-11-20T18:13:05;9.80;46.30
26035;DHT22;13809;48.632;11.576;2022-11-20T18:18:08;9.80;46.40
26035;DHT22;13809;48.632;11.576;2022-11-20T18:23:12;9.70;46.40
26035;DHT22;13809;48.632;11.576;2022-11-20T18:28:15;9.70;46.30
26035;DHT22;13809;48.632;11.576;2022-11-20T18:33:20;9.60;46.50
26035;DHT22;13809;48.632;11.576;2022-11-20T18:38:30;9.50;46.30
26035;DHT22;13809;48.632;11.576;2022-11-20T18:43:33;9.50;46.20
26035;DHT22;13809;48.632;11.576;2022-11-20T18:48:54;9.50;46.40
26035;DHT22;13809;48.632;11.576;2022-11-20T18:53:59;9.50;46.30
26035;DHT22;13809;48.632;11.576;2022-11-20T18:59:02;9.40;46.00
26035;DHT22;13809;48.632;11.576;2022-11-20T19:04:06;9.40;46.10
26035;DHT22;13809;48.632;11.576;2022-11-20T19:09:12;9.40;46.00
26035;DHT22;13809;48.632;11.576;2022-11-20T19:14:15;9.30;45.80
26035;DHT22;13809;48.632;11.576;2022-11-20T19:19:18;9.30;46.10
26035;DHT22;13809;48.632;11.576;2022-11-20T19:24:23;9.30;46.10
26035;DHT22;13809;48.632;11.576;2022-11-20T19:29:28;9.20;45.80
26035;DHT22;13809;48.632;11.576;2022-11-20T19:34:32;9.10;46.00
26035;DHT22;13809;48.632;11.576;2022-11-20T19:39:36;9.10;46.10
26035;DHT22;13809;48.632;11.576;2022-11-20T19:44:39;9.00;46.00
26035;DHT22;13809;48.632;11.576;2022-11-20T19:49:42;9.00;46.00
26035;DHT22;13809;48.632;11.576;2022-11-20T19:54:47;8.90;46.10
26035;DHT22;13809;48.632;11.576;2022-11-20T19:59:50;8.90;46.20
26035;DHT22;13809;48.632;11.576;2022-11-20T20:04:54;8.90;46.40
26035;DHT22;13809;48.632;11.576;2022-11-20T20:09:58;8.80;46.40
26035;DHT22;13809;48.632;11.576;2022-11-20T20:15:01;8.80;46.50
26035;DHT22;13809;48.632;11.576;2022-11-20T20:20:05;8.80;46.50
26035;DHT22;13809;48.632;11.576;2022-11-20T20:25:10;8.80;46.40
26035;DHT22;13809;48.632;11.576;2022-11-20T20:30:14;8.80;46.40
26035;DHT22;13809;48.632;11.576;2022-11-20T20:35:17;8.70;46.40
26035;DHT22;13809;48.632;11.576;2022-11-20T20:40:21;8.70;46.50
26035;DHT22;13809;48.632;11.576;2022-11-20T20:45:25;8.60;46.50
26035;DHT22;13809;48.632;11.576;2022-11-20T20:50:28;8.60;46.70
26035;DHT22;13809;48.632;11.576;2022-11-20T20:55:32;8.70;46.70
26035;DHT22;13809;48.632;11.576;2022-11-20T21:00:36;8.70;46.70
26035;DHT22;13809;48.632;11.576;2022-11-20T21:05:41;8.70;46.70
26035;DHT22;13809;48.632;11.576;2022-11-20T21:10:45;8.70;46.70
26035;DHT22;13809;48.632;11.576;2022-11-20T21:15:49;8.70;46.90
26035;DHT22;13809;48.632;11.576;2022-11-20T21:20:53;8.70;46.80
26035;DHT22;13809;48.632;11.576;2022-11-20T21:26:15;8.70;46.80
26035;DHT22;13809;48.632;11.576;2022-11-20T21:31:20;8.70;46.90
26035;DHT22;13809;48.632;11.576;2022-11-20T21:36:25;8.70;46.90
26035;DHT22;13809;48.632;11.576;2022-11-20T21:41:30;8.70;47.00
26035;DHT22;13809;48.632;11.576;2022-11-20T21:46:37;8.70;47.20
26035;DHT22;13809;48.632;11.576;2022-11-20T21:51:40;8.80;47.40
26035;DHT22;13809;48.632;11.576;2022-11-20T21:56:45;8.90;47.40
26035;DHT22;13809;48.632;11.576;2022-11-20T22:01:48;8.90;47.40
26035;DHT22;13809;48.632;11.576;2022-11-20T22:06:51;8.90;47.20
26035;DHT22;13809;48.632;11.576;2022-11-20T22:11:56;8.90;47.20
26035;DHT22;13809;48.632;11.576;2022-11-20T22:16:59;8.90;47.30
26035;DHT22;13809;48.632;11.576;2022-11-20T22:22:02;8.80;47.30
26035;DHT22;13809;48.632;11.576;2022-11-20T22:27:09;8.80;47.40
26035;DHT22;13809;48.632;11.576;2022-11-20T22:32:12;8.80;47.40
26035;DHT22;13809;48.632;11.576;2022-11-20T22:37:15;8.70;47.30
26035;DHT22;13809;48.632;11.576;2022-11-20T22:42:20;8.70;47.40
26035;DHT22;13809;48.632;11.576;2022-11-20T22:47:23;8.70;47.50
26035;DHT22;13809;48.632;11.576;2022-11-20T22:52:26;8.60;47.50
26035;DHT22;13809;48.632;11.576;2022-11-20T22:57:31;8.50;47.80
26035;DHT22;13809;48.632;11.576;2022-11-20T23:02:34;8.40;48.00
26035;DHT22;13809;48.632;11.576;2022-11-20T23:07:39;8.40;48.10
26035;DHT22;13809;48.632;11.576;2022-11-20T23:12:43;8.40;48.20
26035;DHT22;13809;48.632;11.576;2022-11-20T23:17:46;8.40;48.40
26035;DHT22;13809;48.632;11.576;2022-11-20T23:22:49;8.40;48.40
26035;DHT22;13809;48.632;11.576;2022-11-20T23:27:54;8.40;48.40
26035;DHT22;13809;48.632;11.576;2022-11-20T23:32:57;8.40;48.60
26035;DHT22;13809;48.632;11.576;2022-11-20T23:38:00;8.40;48.50
26035;DHT22;13809;48.632;11.576;2022-11-20T23:43:05;8.40;48.40
26035;DHT22;13809;48.632;11.576;2022-11-20T23:48:17;8.40;48.50
26035;DHT22;13809;48.632;11.576;2022-11-20T23:53:21;8.40;48.30
26035;DHT22;13809;48.632;11.576;2022-11-20T23:58:30;8.40;48.30
